Abu Dhabi, UAE

7:06 AM GST on September 03, 2014 (GMT +0400)
Abu Dhabi International | Change Station
CLOSE
Current Station
Airport
Location: Abu Dhabi,
Elevation: 89 ft
Nearby Weather Stations

Elev 89 ft 24.43 °N, 54.65 °E | Updated 6 minutes ago

Clear
Clear
86 °F
Feels Like 88 °F
N
2
Wind Variable Wind from NNW

Today
High -- | Low -- °F
--% Chance of Precip.
Yesterday
High -- | Low -- °F
Precip. -- in
6:03 AM 6:38 PM
First Quarter, 57% visible
Pressure 29.56 in
Visibility -9999.0 miles
Clouds
Heat Index 88 °F
Dew Point 66 °F
Humidity 51%
Rainfall 0.00 in
Snow Depth Not available.
UV Not available.
Pollen Not available.
Air Quality Not available.
Flu Activity Not available.
METAR OMAA 030300Z 33002KT CAVOK 30/19 Q1001 A2957 NOSIG

More Conditions Fewer Conditions

Pressure 29.56 in
Visibility -9999.0 miles
Clouds
Heat Index 88 °F
Dew Point 66 °F
Humidity 51%
Rainfall 0.00 in
Snow Depth Not available.
UV Not available.
Pollen Not available.
Air Quality Not available.
Flu Activity Not available.
METAR OMAA 030300Z 33002KT CAVOK 30/19 Q1001 A2957 NOSIG

More Conditions Fewer Conditions

10-Day Weather Forecast

Almanac

Astronomy

Sep. 03, 2014 Rise Set
Actual Time 6:03 AM GST 6:38 PM GST
Civil Twilight 5:40 AM GST 7:01 PM GST
Nautical Twilight 5:13 AM GST 7:28 PM GST
Astronomical Twilight 4:45 AM GST 7:55 PM GST
Moon 1:37 PM GST No Moon Set
Length of Visible Light 13h 20m
Length of Day
12h 34m
Tomorrow will be 1m 23s shorter.
First Quarter, 57% of the Moon is Illuminated
Sep 2
First Quarter
Sep 8
Full
Sep 15
Last Quarter
Sep 24
New
Oct 1
First Quarter

Yesterday's Extremes

Country Highs Country Lows

Community

WunderPhotos

Upload Photos

1,749,860 photos uploaded!

Nearby

Snow Depth

Not available.

Earthquake Activity

City Distance Mag. Time & Date
No recent earthquake activity has been reported nearby.
Minimum magnitude displayed is 2.5.

Coastal Water Temperatures

Place Temperature
No Stations Reporting

Nearby Weather Stations